Time;durP1;ratioP1;P1;durP2;ratioP2;P2;SDS_P1;SDS_P2;PMS_P1;PMS_P2;Temp;Humidity;BMP_temperature;BMP_pressure;BME280_temperature;BME280_humidity;BME280_pressure;Samples;Min_cycle;Max_cycle;Signal;HPM_P1;HPM_P2
2021/07/20 04:55:48;;;;;;;;;;;;;;;30.25;52.81;99657.66;1838153;77;20185;-63
2021/07/20 04:58:15;;;;;;;;;;;;;;;30.41;52.46;99667.27;1795584;79;20106;-63
2021/07/20 05:00:44;;;;;;;;;;;;;;;30.55;51.62;99666.60;1796167;80;21120;-67
2021/07/20 05:03:13;;;;;;;;;;;;;;;30.62;51.58;99665.22;1786425;80;20159;-66
2021/07/20 05:05:40;;;;;;;;;;;;;;;30.71;50.84;99669.25;1795317;80;20078;-68
2021/07/20 05:08:15;;;;;;;;;;;;;;;30.83;50.56;99670.10;1792518;80;20424;-65
2021/07/20 05:10:51;;;;;;;;;;;;;;;30.96;50.61;99675.31;1801635;78;20421;-66
2021/07/20 05:13:20;;;;;;;;;;;;;;;31.13;49.99;99676.89;1793549;78;22232;-66
2021/07/20 05:15:53;;;;;;;;;;;;;;;31.36;49.86;99682.33;1818627;78;20132;-65
2021/07/20 05:18:21;;;;;;;;;;;;;;;31.63;49.60;99683.25;1794467;78;20101;-65
2021/07/20 05:20:50;;;;;;;;;;;;;;;31.93;48.86;99676.48;1790317;78;20149;-64
2021/07/20 05:23:18;;;;;;;;;;;;;;;32.08;47.74;99670.09;1748651;80;20125;-67
2021/07/20 05:25:48;;;;;;;;;;;;;;;32.10;47.39;99675.53;1725686;81;21144;-65
2021/07/20 05:28:16;;;;;;;;;;;;;;;32.11;47.12;99679.05;1745307;81;20391;-66
2021/07/20 05:30:43;;;;;;;;;;;;;;;32.19;46.27;99673.31;1750080;81;20173;-67
2021/07/20 05:33:13;;;;;;;;;;;;;;;32.19;46.30;99681.92;1739811;81;20086;-66
2021/07/20 05:35:42;;;;;;;;;;;;;;;32.09;45.86;99681.16;1733638;82;20214;-66
2021/07/20 05:38:09;;;;;;;;;;;;;;;32.06;46.07;99691.05;1737022;81;21118;-65
2021/07/20 05:40:38;;;;;;;;;;;;;;;32.13;45.79;99693.92;1752743;81;20154;-66
2021/07/20 05:43:05;;;;;;;;;;;;;;;32.29;45.46;99689.73;1737704;81;20160;-63
2021/07/20 05:45:35;;;;;;;;;;;;;;;32.48;44.40;99690.40;1742580;81;20141;-61
2021/07/20 05:48:03;;;;;;;;;;;;;;;32.46;43.78;99694.67;1733755;81;20476;-62
2021/07/20 05:50:33;;;;;;;;;;;;;;;32.41;44.02;99700.48;1717751;82;21084;-66
2021/07/20 05:53:18;;;;;;;;;;;;;;;32.55;43.99;99698.36;1677660;85;20154;-65
2021/07/20 05:55:49;;;;;;;;;;;;;;;32.69;43.18;99704.61;1682558;83;20176;-65
2021/07/20 05:58:16;;;;;;;;;;;;;;;32.77;41.90;99694.02;1718556;80;20129;-66
2021/07/20 06:00:42;;;;;;;;;;;;;;;32.69;41.79;99694.36;1729083;82;20139;-66
2021/07/20 06:03:17;;;;;;;;;;;;;;;32.59;42.73;99688.22;1734562;82;21087;-65
2021/07/20 06:05:47;;;;;;;;;;;;;;;32.76;42.99;99698.59;1731354;82;20123;-65
2021/07/20 06:08:15;;;;;;;;;;;;;;;33.11;42.45;99690.36;1698781;83;20178;-66
2021/07/20 06:10:47;;;;;;;;;;;;;;;33.43;41.07;99690.70;1723788;81;20181;-67
2021/07/20 06:13:18;;;;;;;;;;;;;;;33.73;40.33;99691.73;1739922;81;20128;-65
2021/07/20 06:15:46;;;;;;;;;;;;;;;34.02;39.59;99689.77;1722664;82;21121;-65
2021/07/20 06:18:14;;;;;;;;;;;;;;;34.12;38.99;99691.27;1745423;80;20458;-64
2021/07/20 06:20:54;;;;;;;;;;;;;;;34.27;38.80;99698.79;1723925;82;20394;-65
2021/07/20 06:23:21;;;;;;;;;;;;;;;34.37;38.58;99704.91;1723597;82;20136;-67
2021/07/20 06:25:49;;;;;;;;;;;;;;;34.33;38.60;99701.06;1713641;82;20201;-65
2021/07/20 06:28:16;;;;;;;;;;;;;;;34.37;38.38;99697.63;1732840;82;21760;-64
2021/07/20 06:30:44;;;;;;;;;;;;;;;34.49;37.34;99688.02;1737079;82;20380;-65
2021/07/20 06:33:13;;;;;;;;;;;;;;;34.60;37.51;99699.79;1736533;82;20156;-65
2021/07/20 06:35:43;;;;;;;;;;;;;;;34.54;37.52;99692.14;1719556;82;20093;-67
2021/07/20 06:38:17;;;;;;;;;;;;;;;34.34;36.72;99694.06;1729468;81;20143;-66
2021/07/20 06:40:48;;;;;;;;;;;;;;;34.05;37.15;99691.16;1688464;82;21829;-71
2021/07/20 06:43:15;;;;;;;;;;;;;;;33.78;37.58;99689.64;1719908;82;20188;-66
2021/07/20 06:45:45;;;;;;;;;;;;;;;33.55;37.57;99691.98;1719716;82;20438;-66
2021/07/20 06:48:16;;;;;;;;;;;;;;;33.39;36.87;99695.47;1725896;81;20114;-66
2021/07/20 06:50:43;;;;;;;;;;;;;;;33.37;36.63;99698.41;1727683;81;20112;-66
2021/07/20 06:53:12;;;;;;;;;;;;;;;33.56;36.80;99690.92;1718091;81;21466;-64
2021/07/20 06:55:53;;;;;;;;;;;;;;;33.76;36.68;99687.72;1737527;81;20175;-65
2021/07/20 06:58:21;;;;;;;;;;;;;;;33.84;35.72;99686.52;1722173;82;20179;-62
2021/07/20 07:00:52;;;;;;;;;;;;;;;33.86;36.09;99679.81;1732709;81;20148;-66
2021/07/20 07:03:19;;;;;;;;;;;;;;;33.95;35.93;99675.64;1737885;81;20294;-65
2021/07/20 07:05:48;;;;;;;;;;;;;;;34.11;35.92;99673.95;1734391;81;21896;-66
2021/07/20 07:08:31;;;;;;;;;;;;;;;;;;;;;
2021/07/20 07:11:00;;;;;;;;;;;;;;;34.32;35.73;99667.81;1735147;81;20393;-65
2021/07/20 07:13:29;;;;;;;;;;;;;;;34.32;34.54;99671.87;1712037;81;20088;-66
2021/07/20 07:15:58;;;;;;;;;;;;;;;34.42;34.78;99673.86;1740666;81;20084;-69
2021/07/20 07:18:25;;;;;;;;;;;;;;;34.59;34.48;99683.28;1748153;81;21142;-67
2021/07/20 07:20:53;;;;;;;;;;;;;;;34.70;34.22;99684.52;1739175;81;20092;-67
2021/07/20 07:23:20;;;;;;;;;;;;;;;34.74;34.15;99684.83;1738133;81;20095;-67
2021/07/20 07:25:57;;;;;;;;;;;;;;;34.83;34.44;99682.50;1742191;81;20302;-64
2021/07/20 07:28:23;;;;;;;;;;;;;;;34.91;34.54;99682.88;1738289;81;20096;-65
2021/07/20 07:30:51;;;;;;;;;;;;;;;35.04;34.94;99681.67;1737565;81;21161;-65
2021/07/20 07:33:18;;;;;;;;;;;;;;;35.29;34.78;99687.86;1743616;81;20108;-62
2021/07/20 07:35:46;;;;;;;;;;;;;;;35.42;34.38;99686.13;1731866;81;20141;-65
2021/07/20 07:38:16;;;;;;;;;;;;;;;35.26;34.06;99689.19;1728947;82;20154;-62
2021/07/20 07:40:54;;;;;;;;;;;;;;;35.04;34.92;99687.89;1727704;82;20128;-67
2021/07/20 07:43:48;;;;;;;;;;;;;;;34.99;34.94;99684.31;1726459;82;20135;-67
2021/07/20 07:46:18;;;;;;;;;;;;;;;35.01;35.44;99684.88;1729685;82;20092;-64
2021/07/20 07:48:45;;;;;;;;;;;;;;;35.07;35.47;99686.58;1729742;81;20126;-63
2021/07/20 07:51:12;;;;;;;;;;;;;;;35.21;35.21;99687.78;1727403;82;20139;-64
2021/07/20 07:53:43;;;;;;;;;;;;;;;35.36;34.84;99686.61;1737380;81;20088;-63
2021/07/20 07:56:14;;;;;;;;;;;;;;;35.39;35.11;99683.39;1750180;80;21099;-63
2021/07/20 07:58:42;;;;;;;;;;;;;;;35.35;35.26;99682.27;1756795;80;20114;-63
2021/07/20 08:01:09;;;;;;;;;;;;;;;35.24;35.93;99681.04;1756804;80;20117;-64
2021/07/20 08:03:39;;;;;;;;;;;;;;;35.19;35.68;99681.02;1751560;80;20200;-63
2021/07/20 08:06:14;;;;;;;;;;;;;;;35.14;35.42;99678.26;1751602;81;20495;-63
2021/07/20 08:08:40;;;;;;;;;;;;;;;35.10;35.19;99669.29;1753852;80;23102;-61
2021/07/20 08:11:09;;;;;;;;;;;;;;;35.03;34.92;99674.08;1759883;80;20621;-65
2021/07/20 08:13:38;;;;;;;;;;;;;;;35.10;33.90;99677.41;1728273;81;20190;-68
2021/07/20 08:16:07;;;;;;;;;;;;;;;35.23;33.18;99671.28;1757535;80;20154;-65
2021/07/20 08:18:33;;;;;;;;;;;;;;;35.36;32.83;99667.66;1752613;81;20134;-65
2021/07/20 08:21:07;;;;;;;;;;;;;;;35.42;32.16;99668.53;1753980;80;21860;-65
2021/07/20 08:23:35;;;;;;;;;;;;;;;35.32;32.26;99673.30;1768049;80;20110;-65
2021/07/20 08:26:12;;;;;;;;;;;;;;;35.26;31.81;99677.54;1756852;80;20396;-64
2021/07/20 08:28:47;;;;;;;;;;;;;;;35.30;31.49;99682.22;1763513;80;20149;-64
2021/07/20 08:31:14;;;;;;;;;;;;;;;35.30;31.51;99676.80;1754542;80;20267;-64
2021/07/20 08:33:42;;;;;;;;;;;;;;;35.36;30.80;99680.38;1765354;80;20976;-65
2021/07/20 08:36:09;;;;;;;;;;;;;;;35.28;29.53;99673.50;1770844;80;20671;-66
2021/07/20 08:38:36;;;;;;;;;;;;;;;34.91;30.37;99679.34;1750567;81;20130;-63
2021/07/20 08:41:09;;;;;;;;;;;;;;;34.41;31.04;99670.88;1753739;81;20142;-65
2021/07/20 08:44:15;;;;;;;;;;;;;;;34.01;31.78;99669.75;1752579;81;20122;-65
2021/07/20 08:46:52;;;;;;;;;;;;;;;33.70;32.95;99665.74;1754346;81;21892;-69
2021/07/20 08:49:23;;;;;;;;;;;;;;;33.57;33.33;99668.26;1756318;80;20130;-65
2021/07/20 08:52:08;;;;;;;;;;;;;;;33.43;33.24;99661.53;1751145;81;20429;-64
2021/07/20 08:54:38;;;;;;;;;;;;;;;33.12;33.79;99663.67;1754204;81;20158;-63
2021/07/20 08:57:05;;;;;;;;;;;;;;;32.80;34.17;99663.31;1755229;80;20098;-65
2021/07/20 08:59:38;;;;;;;;;;;;;;;32.66;34.90;99665.17;1758298;80;21813;-64
2021/07/20 09:02:25;;;;;;;;;;;;;;;32.62;35.16;99665.36;1765395;80;20068;-65
2021/07/20 09:04:59;;;;;;;;;;;;;;;32.62;34.89;99662.66;1768075;80;20469;-64
2021/07/20 09:07:25;;;;;;;;;;;;;;;32.60;34.29;99658.85;1699731;80;20934;-64
2021/07/20 09:09:52;;;;;;;;;;;;;;;32.50;34.18;99657.29;1757338;80;20187;-64
2021/07/20 09:12:25;;;;;;;;;;;;;;;32.31;34.27;99656.64;1747442;80;21124;-63
2021/07/20 09:15:01;;;;;;;;;;;;;;;32.22;33.74;99654.54;1750580;80;20127;-68
2021/07/20 09:17:34;;;;;;;;;;;;;;;32.08;34.93;99658.78;1752473;80;20464;-66
2021/07/20 09:20:09;;;;;;;;;;;;;;;31.87;35.47;99662.61;1762489;80;20126;-64
2021/07/20 09:22:48;;;;;;;;;;;;;;;31.73;35.12;99658.78;1750796;81;20094;-64
2021/07/20 09:25:20;;;;;;;;;;;;;;;31.69;34.99;99654.92;1777497;80;20755;-68
2021/07/20 09:28:02;;;;;;;;;;;;;;;31.69;34.77;99644.67;1767233;80;20133;-67
2021/07/20 09:30:32;;;;;;;;;;;;;;;31.71;35.00;99652.81;1761864;80;20219;-63
2021/07/20 09:33:29;;;;;;;;;;;;;;;31.73;34.36;99650.70;1761480;80;20154;-65
2021/07/20 09:36:02;;;;;;;;;;;;;;;31.66;34.23;99645.92;1752613;80;20135;-63
2021/07/20 09:38:51;;;;;;;;;;;;;;;31.54;35.73;99646.46;1767294;80;21996;-65
2021/07/20 09:41:33;;;;;;;;;;;;;;;31.59;36.04;99641.73;1745542;80;20147;-64
2021/07/20 09:44:16;;;;;;;;;;;;;;;31.72;35.74;99650.41;1743430;80;20075;-65
2021/07/20 09:47:02;;;;;;;;;;;;;;;31.80;35.52;99653.30;1771293;80;20244;-65
2021/07/20 09:49:58;;;;;;;;;;;;;;;31.66;35.48;99645.92;1753908;80;20095;-66
2021/07/20 09:52:58;;;;;;;;;;;;;;;31.48;35.96;99646.03;1745022;80;20142;-71
2021/07/20 09:55:43;;;;;;;;;;;;;;;31.32;36.14;99642.66;1747424;80;20281;-66
2021/07/20 09:58:23;;;;;;;;;;;;;;;31.27;36.41;99642.52;1735502;81;20095;-66
2021/07/20 10:01:02;;;;;;;;;;;;;;;31.20;37.00;99645.31;1714555;81;21729;-66
2021/07/20 10:03:49;;;;;;;;;;;;;;;31.14;37.53;99639.00;1729087;82;20130;-66
2021/07/20 10:06:18;;;;;;;;;;;;;;;31.16;37.75;99640.94;1729989;82;21121;-62
2021/07/20 10:08:57;;;;;;;;;;;;;;;31.20;37.13;99637.77;1728983;82;20116;-62
2021/07/20 10:11:40;;;;;;;;;;;;;;;31.18;37.64;99638.55;1728901;82;20421;-69
2021/07/20 10:14:30;;;;;;;;;;;;;;;31.19;37.38;99628.91;1727430;81;20119;-62
2021/07/20 10:17:22;;;;;;;;;;;;;;;31.20;37.21;99629.69;1751919;81;20494;-63
2021/07/20 10:20:11;;;;;;;;;;;;;;;31.25;37.65;99622.58;1760850;80;21162;-63
2021/07/20 10:22:58;;;;;;;;;;;;;;;31.31;37.62;99615.45;1760904;80;20151;-61
2021/07/20 10:25:28;;;;;;;;;;;;;;;31.33;36.91;99610.14;1760582;80;20168;-62
2021/07/20 10:28:15;;;;;;;;;;;;;;;31.23;37.27;99613.09;1760695;81;20462;-63
2021/07/20 10:30:45;;;;;;;;;;;;;;;31.10;37.41;99611.42;1761338;81;20101;-62
2021/07/20 10:33:25;;;;;;;;;;;;;;;31.00;37.38;99611.97;1761232;81;21138;-64
2021/07/20 10:36:04;;;;;;;;;;;;;;;30.99;37.24;99608.98;1760591;81;20112;-63
2021/07/20 10:38:39;;;;;;;;;;;;;;;31.02;37.70;99613.91;1761390;81;20144;-62
2021/07/20 10:41:06;;;;;;;;;;;;;;;30.99;37.69;99608.16;1761020;81;20147;-62
2021/07/20 10:43:37;;;;;;;;;;;;;;;30.95;37.63;99611.01;1761361;80;20981;-63
2021/07/20 10:46:07;;;;;;;;;;;;;;;30.90;37.50;99607.66;1761024;81;21033;-61
2021/07/20 10:48:41;;;;;;;;;;;;;;;30.83;37.25;99605.58;1761527;80;20100;-62
2021/07/20 10:51:12;;;;;;;;;;;;;;;30.78;37.14;99613.53;1761357;81;20435;-61
2021/07/20 10:54:04;;;;;;;;;;;;;;;30.61;36.89;99614.67;1761420;81;20084;-62
2021/07/20 10:56:41;;;;;;;;;;;;;;;30.46;37.81;99613.69;1750784;80;20179;-62
2021/07/20 10:59:30;;;;;;;;;;;;;;;30.45;37.62;99614.73;1753987;82;21191;-62
2021/07/20 11:02:23;;;;;;;;;;;;;;;30.43;38.27;99603.91;1754960;82;20122;-64
2021/07/20 11:05:01;;;;;;;;;;;;;;;30.48;39.27;99610.25;1754399;82;20078;-65
2021/07/20 11:07:39;;;;;;;;;;;;;;;30.57;40.38;99608.11;1760252;80;20405;-63
2021/07/20 11:10:11;;;;;;;;;;;;;;;30.64;40.84;99610.72;1767910;80;20257;-62
2021/07/20 11:12:39;;;;;;;;;;;;;;;30.65;40.76;99598.92;1766521;80;21925;-63
2021/07/20 11:15:07;;;;;;;;;;;;;;;30.68;41.37;99591.75;1763392;80;20387;-65
2021/07/20 11:17:34;;;;;;;;;;;;;;;30.75;41.46;99600.02;1762842;80;20184;-66
2021/07/20 11:20:02;;;;;;;;;;;;;;;30.80;41.01;99591.25;1756679;80;20292;-64
2021/07/20 11:22:29;;;;;;;;;;;;;;;30.77;40.46;99601.14;1760130;80;20131;-65
2021/07/20 11:24:55;;;;;;;;;;;;;;;30.69;40.70;99590.18;1759852;80;21133;-65
2021/07/20 11:27:25;;;;;;;;;;;;;;;30.56;40.76;99595.69;1768325;80;20091;-65
2021/07/20 11:29:51;;;;;;;;;;;;;;;30.35;41.24;99589.46;1755217;81;20095;-67
2021/07/20 11:32:21;;;;;;;;;;;;;;;30.16;41.30;99594.00;1766931;80;21316;-66
2021/07/20 11:35:03;;;;;;;;;;;;;;;30.01;41.42;99589.52;1743583;80;20263;-66
2021/07/20 11:37:37;;;;;;;;;;;;;;;29.94;42.33;99585.55;1752835;80;21125;-66
2021/07/20 11:40:10;;;;;;;;;;;;;;;29.87;43.01;99594.19;1734802;80;20093;-66
2021/07/20 11:42:56;;;;;;;;;;;;;;;29.76;42.81;99590.89;1770150;80;20201;-66
2021/07/20 11:45:24;;;;;;;;;;;;;;;29.59;42.94;99595.98;1755952;80;20306;-67
2021/07/20 11:48:00;;;;;;;;;;;;;;;29.38;43.47;99590.47;1753572;80;20103;-65
2021/07/20 11:50:44;;;;;;;;;;;;;;;29.27;43.42;99588.48;1754290;80;21113;-66
2021/07/20 11:53:23;;;;;;;;;;;;;;;29.23;42.69;99590.48;1734633;80;20126;-68
2021/07/20 11:55:58;;;;;;;;;;;;;;;29.21;42.88;99584.81;1749738;81;20110;-70
2021/07/20 11:58:43;;;;;;;;;;;;;;;29.29;43.33;99590.95;1739164;81;20350;-69
2021/07/20 12:01:43;;;;;;;;;;;;;;;29.41;43.12;99590.59;1750359;81;20093;-70
2021/07/20 12:04:15;;;;;;;;;;;;;;;29.58;42.84;99584.98;1710663;81;21079;-66
2021/07/20 12:06:58;;;;;;;;;;;;;;;29.66;42.61;99579.31;1746895;81;20154;-70
2021/07/20 12:09:47;;;;;;;;;;;;;;;29.64;42.81;99585.41;1741727;81;20435;-65
2021/07/20 12:12:16;;;;;;;;;;;;;;;29.59;43.22;99581.78;1748520;81;20123;-67
2021/07/20 12:14:43;;;;;;;;;;;;;;;29.49;43.09;99587.11;1741616;81;20087;-66
2021/07/20 12:17:11;;;;;;;;;;;;;;;29.45;42.03;99582.41;1715124;81;21157;-67
2021/07/20 12:19:40;;;;;;;;;;;;;;;29.37;41.81;99573.25;1716738;82;20152;-68
2021/07/20 12:22:08;;;;;;;;;;;;;;;29.30;41.15;99579.19;1713797;81;20214;-67
2021/07/20 12:24:37;;;;;;;;;;;;;;;29.29;41.03;99578.89;1745312;80;20444;-67
2021/07/20 12:27:05;;;;;;;;;;;;;;;29.29;40.99;99581.56;1741099;81;20122;-67
2021/07/20 12:29:34;;;;;;;;;;;;;;;29.30;41.35;99570.62;1745249;81;21035;-67
2021/07/20 12:32:01;;;;;;;;;;;;;;;29.39;41.38;99572.00;1680743;82;20514;-68
2021/07/20 12:34:28;;;;;;;;;;;;;;;29.50;41.09;99568.64;1732179;81;20281;-67
2021/07/20 12:36:56;;;;;;;;;;;;;;;29.61;41.12;99571.62;1737565;81;20423;-67
2021/07/20 12:39:23;;;;;;;;;;;;;;;29.67;41.31;99568.88;1741002;81;20405;-67
2021/07/20 12:41:52;;;;;;;;;;;;;;;29.67;40.46;99567.53;1743345;81;21115;-67
2021/07/20 12:44:23;;;;;;;;;;;;;;;29.64;40.30;99568.49;1740749;81;20103;-67
2021/07/20 12:46:50;;;;;;;;;;;;;;;29.61;40.14;99560.88;1754274;81;20115;-67
2021/07/20 12:49:16;;;;;;;;;;;;;;;29.52;40.71;99564.39;1751109;81;20410;-68
2021/07/20 12:51:49;;;;;;;;;;;;;;;29.46;40.44;99565.27;1743401;80;20155;-66
2021/07/20 12:54:16;;;;;;;;;;;;;;;29.40;40.24;99566.11;1738129;81;21116;-66
2021/07/20 12:56:44;;;;;;;;;;;;;;;29.36;39.94;99561.70;1742797;80;20482;-70
2021/07/20 12:59:11;;;;;;;;;;;;;;;29.38;40.04;99566.33;1731654;81;20119;-66
2021/07/20 13:01:41;;;;;;;;;;;;;;;29.43;39.23;99563.84;1735330;81;20111;-68
2021/07/20 13:04:08;;;;;;;;;;;;;;;29.43;39.75;99558.48;1701295;83;20148;-68
2021/07/20 13:06:36;;;;;;;;;;;;;;;29.41;39.86;99555.20;1733628;81;21102;-67
2021/07/20 13:09:04;;;;;;;;;;;;;;;29.39;39.90;99557.77;1729068;82;20157;-67
2021/07/20 13:11:37;;;;;;;;;;;;;;;29.37;39.54;99556.64;1730629;82;20126;-68
2021/07/20 13:14:06;;;;;;;;;;;;;;;29.36;39.90;99546.95;1730840;82;21666;-68
2021/07/20 13:16:39;;;;;;;;;;;;;;;29.37;39.75;99556.64;1735369;82;20143;-68
2021/07/20 13:19:05;;;;;;;;;;;;;;;29.35;38.92;99550.67;1730705;82;21230;-66
2021/07/20 13:21:38;;;;;;;;;;;;;;;29.33;39.27;99545.23;1740432;81;20126;-67
2021/07/20 13:24:05;;;;;;;;;;;;;;;29.27;39.18;99540.73;1727507;82;20131;-68
2021/07/20 13:26:36;;;;;;;;;;;;;;;29.21;39.51;99540.56;1732597;81;20482;-70
2021/07/20 13:29:06;;;;;;;;;;;;;;;29.17;40.04;99538.05;1731446;81;20087;-68
2021/07/20 13:31:36;;;;;;;;;;;;;;;29.16;39.00;99541.77;1728211;82;24088;-68
2021/07/20 13:34:05;;;;;;;;;;;;;;;29.12;38.67;99539.73;1739347;82;20123;-68
2021/07/20 13:36:34;;;;;;;;;;;;;;;29.07;39.02;99542.25;1738214;82;20095;-66
2021/07/20 13:39:04;;;;;;;;;;;;;;;29.04;39.28;99538.14;1739775;81;20211;-66
2021/07/20 13:41:31;;;;;;;;;;;;;;;29.03;38.95;99538.36;1731688;82;20158;-68
2021/07/20 13:44:01;;;;;;;;;;;;;;;28.98;38.65;99528.28;1745049;81;21546;-67
2021/07/20 13:46:29;;;;;;;;;;;;;;;28.95;39.08;99530.58;1745677;81;20162;-68
2021/07/20 13:48:57;;;;;;;;;;;;;;;28.89;39.03;99525.56;1746074;81;20096;-69
2021/07/20 13:51:27;;;;;;;;;;;;;;;28.87;39.53;99524.95;1742140;81;20158;-67
2021/07/20 13:53:58;;;;;;;;;;;;;;;28.85;38.95;99518.99;1730346;81;20442;-67
2021/07/20 13:56:36;;;;;;;;;;;;;;;28.83;39.00;99520.55;1742937;80;21823;-67
2021/07/20 13:59:18;;;;;;;;;;;;;;;28.84;39.75;99522.71;1736272;81;20181;-67
